createdAt,value
2022-09-23T00:01:16.796Z,8.98
2022-09-23T00:03:47.391Z,10.02
2022-09-23T00:06:17.478Z,10.00
2022-09-23T00:08:44.788Z,8.80
2022-09-23T00:11:17.698Z,9.35
2022-09-23T00:13:46.724Z,8.88
2022-09-23T00:16:16.982Z,8.25
2022-09-23T00:18:44.261Z,8.07
2022-09-23T00:21:13.559Z,9.20
2022-09-23T00:23:42.890Z,8.68
2022-09-23T00:26:12.782Z,8.98
2022-09-23T00:28:39.573Z,8.32
2022-09-23T00:31:08.656Z,8.38
2022-09-23T00:33:35.322Z,9.23
2022-09-23T00:36:05.700Z,8.68
2022-09-23T00:38:33.895Z,8.30
2022-09-23T00:41:00.945Z,8.65
2022-09-23T00:43:48.935Z,8.70
2022-09-23T00:46:37.437Z,8.63
2022-09-23T00:49:10.903Z,8.85
2022-09-23T00:51:41.372Z,8.25
2022-09-23T00:54:09.189Z,7.93
2022-09-23T00:56:38.677Z,8.95
2022-09-23T00:59:09.655Z,9.15
2022-09-23T01:01:38.205Z,8.77
2022-09-23T01:04:07.196Z,8.95
2022-09-23T01:06:34.355Z,8.77
2022-09-23T01:09:02.319Z,8.82
2022-09-23T01:11:40.604Z,9.43
2022-09-23T01:14:20.247Z,8.02
2022-09-23T01:16:59.144Z,8.50
2022-09-23T01:19:36.337Z,8.15
2022-09-23T01:22:09.167Z,8.98
2022-09-23T01:24:54.843Z,9.80
2022-09-23T01:27:34.298Z,8.80
2022-09-23T01:30:16.664Z,9.55
2022-09-23T01:32:43.440Z,8.73
2022-09-23T01:35:22.592Z,9.52
2022-09-23T01:38:05.128Z,8.88
2022-09-23T01:40:59.791Z,9.27
2022-09-23T01:43:39.000Z,9.05
2022-09-23T01:46:16.495Z,9.68
2022-09-23T01:48:53.801Z,8.43
2022-09-23T01:51:40.575Z,8.82
2022-09-23T01:54:31.006Z,9.35
2022-09-23T01:57:09.718Z,8.45
2022-09-23T01:59:41.511Z,9.68
2022-09-23T02:02:11.583Z,8.85
2022-09-23T02:05:04.172Z,9.82
2022-09-23T02:07:42.217Z,9.27
2022-09-23T02:10:15.350Z,9.27
2022-09-23T02:12:46.903Z,9.70
2022-09-23T02:15:24.862Z,8.98
2022-09-23T02:17:56.186Z,9.38
2022-09-23T02:20:29.941Z,9.38
2022-09-23T02:23:03.709Z,9.35
2022-09-23T02:28:17.003Z,8.77
2022-09-23T02:30:52.016Z,8.80
2022-09-23T02:33:28.850Z,8.98
2022-09-23T02:36:06.317Z,8.77
2022-09-23T02:38:50.778Z,8.63
2022-09-23T02:41:37.188Z,8.82
2022-09-23T02:44:09.031Z,8.60
2022-09-23T02:46:37.014Z,8.80
2022-09-23T02:49:21.920Z,8.95
2022-09-23T02:51:49.169Z,9.30
2022-09-23T02:54:22.804Z,9.57
2022-09-23T02:56:49.807Z,9.77
2022-09-23T02:59:20.808Z,10.02
2022-09-23T03:02:09.389Z,9.65
2022-09-23T03:04:58.554Z,10.00
2022-09-23T03:07:44.507Z,9.43
2022-09-23T03:10:22.945Z,10.30
2022-09-23T03:13:02.022Z,9.65
2022-09-23T03:15:42.710Z,9.88
2022-09-23T03:18:31.672Z,9.55
2022-09-23T03:21:09.934Z,9.48
2022-09-23T03:23:40.015Z,9.05
2022-09-23T03:26:14.720Z,9.30
2022-09-23T03:28:44.868Z,10.25
2022-09-23T03:31:13.950Z,11.45
2022-09-23T03:33:45.399Z,14.02
2022-09-23T03:36:33.596Z,13.45
2022-09-23T03:39:08.966Z,15.38
2022-09-23T03:41:42.073Z,15.73
2022-09-23T03:44:10.974Z,16.83
2022-09-23T03:46:37.933Z,15.50
2022-09-23T03:49:16.436Z,16.65
2022-09-23T03:51:44.753Z,16.27
2022-09-23T03:54:12.317Z,16.95
2022-09-23T03:56:39.324Z,17.27
2022-09-23T03:59:06.163Z,17.33
2022-09-23T04:01:33.051Z,17.33
2022-09-23T04:04:00.166Z,17.65
2022-09-23T04:06:27.114Z,18.20
2022-09-23T04:08:53.902Z,19.30
2022-09-23T04:11:20.458Z,18.05
2022-09-23T04:13:47.213Z,15.77
2022-09-23T04:16:14.159Z,16.60
2022-09-23T04:18:40.869Z,16.27
2022-09-23T04:21:07.487Z,14.95
2022-09-23T04:23:34.091Z,14.60
2022-09-23T04:26:00.754Z,14.32
2022-09-23T04:28:27.656Z,14.57
2022-09-23T04:30:56.626Z,14.20
2022-09-23T04:33:24.585Z,13.18
2022-09-23T04:35:52.412Z,14.57
2022-09-23T04:38:19.560Z,12.35
2022-09-23T04:40:46.262Z,11.73
2022-09-23T04:43:15.784Z,11.00
2022-09-23T04:45:43.554Z,10.90
2022-09-23T04:48:11.329Z,11.77
2022-09-23T04:50:38.367Z,11.70
2022-09-23T04:53:05.290Z,10.98
2022-09-23T04:55:32.216Z,10.52
2022-09-23T04:57:58.992Z,10.98
2022-09-23T05:00:28.611Z,10.98
2022-09-23T05:02:55.523Z,10.43
2022-09-23T05:05:23.665Z,10.75
2022-09-23T05:07:51.341Z,10.90
2022-09-23T05:10:18.331Z,10.38
2022-09-23T05:12:45.630Z,10.68
2022-09-23T05:15:16.094Z,10.95
2022-09-23T05:17:43.289Z,10.10
2022-09-23T05:20:13.704Z,10.60
2022-09-23T05:22:40.436Z,9.68
2022-09-23T05:25:07.465Z,10.57
2022-09-23T05:27:34.423Z,10.95
2022-09-23T05:30:01.930Z,10.52
2022-09-23T05:32:28.525Z,10.20
2022-09-23T05:34:55.753Z,10.07
2022-09-23T05:37:23.049Z,10.63
2022-09-23T05:39:53.136Z,10.25
2022-09-23T05:42:20.945Z,10.43
2022-09-23T05:44:47.912Z,10.20
2022-09-23T05:47:14.562Z,9.93
2022-09-23T05:49:58.528Z,10.38
2022-09-23T05:52:26.649Z,9.88
2022-09-23T05:54:53.848Z,9.63
2022-09-23T05:57:21.412Z,10.02
2022-09-23T05:59:47.970Z,9.50
2022-09-23T06:02:15.225Z,10.15
2022-09-23T06:04:42.706Z,9.57
2022-09-23T06:07:09.879Z,10.18
2022-09-23T06:09:37.018Z,9.20
2022-09-23T06:12:06.272Z,9.50
2022-09-23T06:14:32.809Z,9.65
2022-09-23T06:16:59.507Z,9.35
2022-09-23T06:19:26.169Z,10.40
2022-09-23T06:21:53.048Z,9.32
2022-09-23T06:24:23.758Z,9.23
2022-09-23T06:26:52.617Z,9.48
2022-09-23T06:29:19.354Z,9.60
2022-09-23T06:31:45.945Z,8.75
2022-09-23T06:34:14.446Z,9.32
2022-09-23T06:36:45.416Z,8.98
2022-09-23T06:39:16.201Z,9.15
2022-09-23T06:41:45.035Z,9.70
2022-09-23T06:44:15.726Z,9.10
2022-09-23T06:46:43.136Z,9.60
2022-09-23T06:49:11.072Z,9.38
2022-09-23T06:51:37.645Z,9.25
2022-09-23T06:54:04.648Z,9.27
2022-09-23T06:56:36.148Z,9.65
2022-09-23T06:59:06.352Z,9.48
2022-09-23T07:01:33.410Z,8.48
2022-09-23T07:04:01.743Z,8.90
2022-09-23T07:06:28.405Z,8.30
2022-09-23T07:08:55.052Z,9.10
2022-09-23T07:11:22.563Z,8.80
2022-09-23T07:13:49.786Z,8.45
2022-09-23T07:16:16.473Z,8.00
2022-09-23T07:18:43.229Z,8.80
2022-09-23T07:21:15.088Z,7.82
2022-09-23T07:23:42.914Z,8.15
2022-09-23T07:26:10.242Z,7.80
2022-09-23T07:28:38.327Z,8.30
2022-09-23T07:31:10.543Z,8.10
2022-09-23T07:33:39.803Z,7.18
2022-09-23T07:36:13.314Z,7.85
2022-09-23T07:38:44.423Z,8.93
2022-09-23T07:41:15.212Z,8.18
2022-09-23T07:43:41.802Z,7.78
2022-09-23T07:46:16.099Z,7.90
2022-09-23T07:48:44.358Z,7.47
2022-09-23T07:51:16.460Z,7.57
2022-09-23T07:53:43.275Z,7.40
2022-09-23T07:56:10.503Z,7.40
2022-09-23T07:58:37.018Z,6.93
2022-09-23T08:01:05.717Z,7.28
2022-09-23T08:03:32.567Z,7.28
2022-09-23T08:06:10.003Z,6.75
2022-09-23T08:08:40.725Z,6.95
2022-09-23T08:11:10.201Z,6.72
2022-09-23T08:13:37.270Z,7.57
2022-09-23T08:16:04.481Z,6.50
2022-09-23T08:18:31.300Z,6.13
2022-09-23T08:20:59.346Z,6.88
2022-09-23T08:23:26.139Z,7.07
2022-09-23T08:26:03.826Z,7.00
2022-09-23T08:28:33.771Z,6.57
2022-09-23T08:31:00.998Z,6.95
2022-09-23T08:33:27.957Z,6.15
2022-09-23T08:36:00.551Z,6.57
2022-09-23T08:38:27.658Z,6.23
2022-09-23T08:41:05.682Z,6.90
2022-09-23T08:43:35.963Z,7.13
2022-09-23T08:46:05.785Z,6.80
2022-09-23T08:48:38.593Z,6.80
2022-09-23T08:51:08.477Z,6.68
2022-09-23T08:53:38.314Z,7.18
2022-09-23T08:56:20.062Z,6.47
2022-09-23T08:58:54.433Z,5.90
2022-09-23T09:01:28.469Z,5.97
2022-09-23T09:04:01.505Z,6.18
2022-09-23T09:06:52.258Z,5.90
2022-09-23T09:09:37.083Z,6.88
2022-09-23T09:15:02.571Z,5.70
2022-09-23T09:17:33.029Z,5.32
2022-09-23T09:20:05.919Z,4.82
2022-09-23T09:22:38.900Z,5.40
2022-09-23T09:25:18.638Z,4.72
2022-09-23T09:27:46.325Z,4.70
2022-09-23T09:30:17.178Z,4.45
2022-09-23T09:32:52.302Z,3.88
2022-09-23T09:35:23.231Z,4.63
2022-09-23T09:37:49.787Z,5.18
2022-09-23T09:40:17.558Z,4.68
2022-09-23T09:42:49.628Z,4.63
2022-09-23T09:45:57.808Z,4.90
2022-09-23T09:48:45.479Z,4.65
2022-09-23T09:51:21.794Z,5.45
2022-09-23T09:53:51.907Z,5.32
2022-09-23T09:56:34.377Z,5.47
2022-09-23T09:59:08.218Z,5.00
2022-09-23T10:01:35.650Z,4.93
2022-09-23T10:04:20.583Z,4.60
2022-09-23T10:07:14.309Z,4.70
2022-09-23T10:09:49.298Z,5.13
2022-09-23T10:12:19.245Z,5.15
2022-09-23T10:14:51.302Z,5.40
2022-09-23T10:17:21.503Z,4.95
2022-09-23T10:19:58.818Z,5.13
2022-09-23T10:22:33.485Z,5.47
2022-09-23T10:25:07.407Z,5.15
2022-09-23T10:27:36.702Z,5.50
2022-09-23T10:30:30.061Z,5.13
2022-09-23T10:32:57.213Z,4.60
2022-09-23T10:35:26.631Z,5.30
2022-09-23T10:37:53.857Z,5.05
2022-09-23T10:40:48.813Z,5.47
2022-09-23T10:44:00.196Z,4.53
2022-09-23T10:46:39.018Z,4.15
2022-09-23T10:49:31.063Z,4.18
2022-09-23T10:52:22.923Z,4.68
2022-09-23T10:55:07.150Z,4.53
2022-09-23T10:57:46.443Z,4.32
2022-09-23T11:00:32.092Z,4.82
2022-09-23T11:03:34.678Z,4.07
2022-09-23T11:06:04.207Z,4.35
2022-09-23T11:09:08.540Z,4.28
2022-09-23T11:11:44.250Z,4.50
2022-09-23T11:14:38.792Z,4.30
2022-09-23T11:17:45.915Z,4.53
2022-09-23T11:20:23.109Z,3.92
2022-09-23T11:23:14.317Z,3.45
2022-09-23T11:26:25.954Z,4.00
2022-09-23T11:29:04.233Z,4.03
2022-09-23T11:31:40.582Z,4.28
2022-09-23T11:34:28.700Z,4.20
2022-09-23T11:37:07.242Z,3.72
2022-09-23T11:39:44.038Z,3.60
2022-09-23T11:42:19.663Z,3.75
2022-09-23T11:44:54.040Z,3.53
2022-09-23T11:47:39.820Z,3.72
2022-09-23T11:50:20.039Z,3.55
2022-09-23T11:52:59.080Z,3.40
2022-09-23T11:55:32.836Z,3.42
2022-09-23T11:58:12.214Z,4.00
2022-09-23T12:00:59.337Z,4.07
2022-09-23T12:03:48.196Z,4.15
2022-09-23T12:06:20.384Z,4.15
2022-09-23T12:08:53.697Z,4.07
2022-09-23T12:14:07.453Z,4.20
2022-09-23T12:16:40.368Z,4.50
2022-09-23T12:19:34.831Z,4.28
2022-09-23T12:22:24.798Z,4.97
2022-09-23T12:25:04.528Z,4.50
2022-09-23T12:27:45.956Z,4.20
2022-09-23T12:30:17.798Z,4.38
2022-09-23T12:32:44.973Z,4.60
2022-09-23T12:35:25.162Z,4.20
2022-09-23T12:37:53.247Z,4.00
2022-09-23T12:40:32.842Z,4.68
2022-09-23T12:43:01.200Z,4.93
2022-09-23T12:45:32.607Z,4.20
2022-09-23T12:48:03.117Z,4.38
2022-09-23T12:50:50.818Z,4.40
2022-09-23T12:53:53.458Z,4.85
2022-09-23T12:56:26.465Z,5.10
2022-09-23T12:59:28.587Z,4.85
2022-09-23T13:01:56.090Z,4.97
2022-09-23T13:04:49.740Z,4.90
2022-09-23T13:07:21.936Z,5.35
2022-09-23T13:09:52.334Z,5.15
2022-09-23T13:12:28.193Z,5.32
2022-09-23T13:15:00.589Z,5.70
2022-09-23T13:17:33.101Z,5.38
2022-09-23T13:20:03.698Z,5.90
2022-09-23T13:23:04.034Z,5.68
2022-09-23T13:25:33.654Z,6.25
2022-09-23T13:28:12.507Z,5.35
2022-09-23T13:30:49.162Z,5.63
2022-09-23T13:33:24.173Z,5.53
2022-09-23T13:35:52.529Z,5.07
2022-09-23T13:38:19.005Z,5.38
2022-09-23T13:40:46.995Z,4.72
2022-09-23T13:43:40.346Z,5.18
2022-09-23T13:46:16.193Z,4.95
2022-09-23T13:48:45.307Z,6.07
2022-09-23T13:51:21.992Z,5.95
2022-09-23T13:53:58.186Z,5.90
2022-09-23T13:56:28.547Z,5.68
2022-09-23T13:59:23.429Z,5.30
2022-09-23T14:01:50.040Z,5.55
2022-09-23T14:04:26.076Z,5.32
2022-09-23T14:06:55.745Z,5.82
2022-09-23T14:09:27.463Z,5.35
2022-09-23T14:11:56.603Z,5.55
2022-09-23T14:14:23.801Z,6.18
2022-09-23T14:16:51.756Z,5.72
2022-09-23T14:19:21.408Z,5.60
2022-09-23T14:21:53.377Z,5.50
2022-09-23T14:24:29.610Z,5.72
2022-09-23T14:27:12.657Z,5.72
2022-09-23T14:29:42.076Z,5.50
2022-09-23T14:32:14.400Z,5.65
2022-09-23T14:34:42.810Z,6.20
2022-09-23T14:37:37.713Z,6.30
2022-09-23T14:40:11.240Z,5.28
2022-09-23T14:42:41.212Z,6.25
2022-09-23T14:45:13.946Z,6.30
2022-09-23T14:47:45.803Z,6.13
2022-09-23T14:50:36.823Z,6.38
2022-09-23T14:53:04.882Z,6.43
2022-09-23T14:55:31.805Z,6.25
2022-09-23T14:58:04.735Z,6.20
2022-09-23T15:00:31.866Z,6.35
2022-09-23T15:03:13.032Z,6.40
2022-09-23T15:05:46.305Z,6.95
2022-09-23T15:08:19.196Z,5.93
2022-09-23T15:10:46.249Z,6.18
2022-09-23T15:13:17.684Z,5.85
2022-09-23T15:15:44.631Z,5.68
2022-09-23T15:18:18.742Z,5.97
2022-09-23T15:20:54.783Z,5.97
2022-09-23T15:23:49.169Z,6.38
2022-09-23T15:26:19.986Z,6.35
2022-09-23T15:28:48.319Z,7.18
2022-09-23T15:31:16.797Z,7.07
2022-09-23T15:33:47.869Z,6.35
2022-09-23T15:36:19.052Z,6.93
2022-09-23T15:38:46.686Z,5.82
2022-09-23T15:41:14.408Z,6.35
2022-09-23T15:43:41.828Z,6.50
2022-09-23T15:46:22.085Z,5.75
2022-09-23T15:48:59.024Z,6.65
2022-09-23T15:51:27.591Z,6.22
2022-09-23T15:53:55.462Z,6.72
2022-09-23T15:56:22.959Z,7.05
2022-09-23T15:58:50.426Z,6.65
2022-09-23T16:01:31.677Z,6.80
2022-09-23T16:04:01.244Z,6.22
2022-09-23T16:06:28.114Z,6.35
2022-09-23T16:08:55.324Z,6.47
2022-09-23T16:11:32.767Z,6.88
2022-09-23T16:14:00.842Z,7.97
2022-09-23T16:16:28.043Z,7.28
2022-09-23T16:18:55.321Z,7.63
2022-09-23T16:21:28.161Z,7.22
2022-09-23T16:23:57.267Z,7.82
2022-09-23T16:26:30.352Z,7.13
2022-09-23T16:28:58.406Z,7.07
2022-09-23T16:31:26.842Z,7.13
2022-09-23T16:33:53.696Z,7.18
2022-09-23T16:36:31.026Z,7.35
2022-09-23T16:39:02.872Z,7.10
2022-09-23T16:41:34.455Z,6.55
2022-09-23T16:44:04.516Z,6.78
2022-09-23T16:46:31.702Z,7.75
2022-09-23T16:49:00.389Z,7.55
2022-09-23T16:51:30.606Z,7.93
2022-09-23T16:53:59.503Z,7.95
2022-09-23T16:56:29.097Z,8.60
2022-09-23T16:58:56.875Z,8.93
2022-09-23T17:01:44.784Z,8.70
2022-09-23T17:04:12.760Z,8.38
2022-09-23T17:06:50.146Z,8.10
2022-09-23T17:09:20.219Z,8.63
2022-09-23T17:11:53.089Z,8.65
2022-09-23T17:14:20.444Z,8.68
2022-09-23T17:16:47.434Z,8.18
2022-09-23T17:19:14.117Z,8.35
2022-09-23T17:21:40.917Z,8.88
2022-09-23T17:24:07.578Z,8.85
2022-09-23T17:26:34.494Z,8.35
2022-09-23T17:29:02.283Z,8.68
2022-09-23T17:31:30.563Z,8.95
2022-09-23T17:33:57.592Z,9.30
2022-09-23T17:36:24.559Z,10.10
2022-09-23T17:38:54.205Z,10.20
2022-09-23T17:41:21.862Z,8.50
2022-09-23T17:43:55.469Z,8.98
2022-09-23T17:46:23.298Z,8.13
2022-09-23T17:48:53.126Z,8.73
2022-09-23T17:51:19.939Z,7.95
2022-09-23T17:53:48.305Z,8.55
2022-09-23T17:56:15.264Z,9.75
2022-09-23T17:58:43.529Z,9.38
2022-09-23T18:01:12.555Z,9.75
2022-09-23T18:03:43.389Z,9.05
2022-09-23T18:06:12.988Z,9.60
2022-09-23T18:08:42.047Z,9.75
2022-09-23T18:11:15.271Z,9.75
2022-09-23T18:13:42.438Z,8.63
2022-09-23T18:16:09.421Z,9.90
2022-09-23T18:18:36.472Z,10.25
2022-09-23T18:21:04.794Z,9.20
2022-09-23T18:23:32.609Z,8.82
2022-09-23T18:25:59.679Z,8.35
2022-09-23T18:28:32.666Z,8.57
2022-09-23T18:31:01.633Z,7.50
2022-09-23T18:33:31.125Z,8.10
2022-09-23T18:36:03.467Z,9.10
2022-09-23T18:38:33.704Z,9.05
2022-09-23T18:41:01.469Z,8.85
2022-09-23T18:43:37.555Z,10.55
2022-09-23T18:46:14.603Z,10.65
2022-09-23T18:49:01.973Z,10.90
2022-09-23T18:51:30.335Z,10.40
2022-09-23T18:53:59.405Z,12.27
2022-09-23T18:56:29.650Z,12.98
2022-09-23T18:58:57.193Z,13.65
2022-09-23T19:01:24.344Z,14.05
2022-09-23T19:03:56.195Z,13.75
2022-09-23T19:06:24.101Z,14.50
2022-09-23T19:08:53.096Z,16.27
2022-09-23T19:11:21.165Z,15.23
2022-09-23T19:13:56.421Z,15.25
2022-09-23T19:16:26.303Z,15.98
2022-09-23T19:18:53.825Z,16.40
2022-09-23T19:21:22.579Z,16.55
2022-09-23T19:24:08.184Z,16.95
2022-09-23T19:26:39.076Z,17.15
2022-09-23T19:29:08.313Z,18.00
2022-09-23T19:31:43.409Z,17.77
2022-09-23T19:34:16.225Z,18.10
2022-09-23T19:36:45.567Z,18.98
2022-09-23T19:39:22.696Z,18.95
2022-09-23T19:41:50.460Z,20.15
2022-09-23T19:44:17.550Z,18.95
2022-09-23T19:46:51.686Z,18.88
2022-09-23T19:49:21.675Z,19.35
2022-09-23T19:51:48.521Z,19.05
2022-09-23T19:54:21.662Z,20.00
2022-09-23T19:56:49.671Z,19.48
2022-09-23T19:59:19.172Z,18.95
2022-09-23T20:01:48.072Z,19.02
2022-09-23T20:04:15.830Z,19.23
2022-09-23T20:06:43.181Z,18.92
2022-09-23T20:09:10.434Z,18.77
2022-09-23T20:11:37.751Z,17.77
2022-09-23T20:14:06.252Z,19.70
2022-09-23T20:16:35.770Z,18.98
2022-09-23T20:19:04.312Z,19.13
2022-09-23T20:21:31.645Z,19.38
2022-09-23T20:23:58.604Z,19.48
2022-09-23T20:26:43.992Z,18.52
2022-09-23T20:29:11.467Z,19.52
2022-09-23T20:31:40.249Z,20.00
2022-09-23T20:34:08.199Z,20.05
2022-09-23T20:36:36.240Z,20.08
2022-09-23T20:39:09.631Z,20.85
2022-09-23T20:41:38.995Z,20.13
2022-09-23T20:44:09.753Z,19.67
2022-09-23T20:46:36.809Z,17.05
2022-09-23T20:49:04.654Z,18.40
2022-09-23T20:51:33.406Z,16.95
2022-09-23T20:54:01.250Z,16.88
2022-09-23T20:56:29.040Z,16.52
2022-09-23T20:59:00.511Z,16.88
2022-09-23T21:01:27.824Z,16.05
2022-09-23T21:03:55.943Z,14.85
2022-09-23T21:06:26.156Z,15.80
2022-09-23T21:08:54.656Z,15.88
2022-09-23T21:11:22.033Z,15.15
2022-09-23T21:13:53.868Z,16.02
2022-09-23T21:16:25.280Z,15.65
2022-09-23T21:18:52.812Z,15.20
2022-09-23T21:21:21.961Z,14.75
2022-09-23T21:23:49.567Z,14.95
2022-09-23T21:26:26.541Z,14.95
2022-09-23T21:28:57.635Z,14.32
2022-09-23T21:31:33.836Z,15.55
2022-09-23T21:34:06.422Z,15.27
2022-09-23T21:36:38.247Z,15.35
2022-09-23T21:39:06.783Z,15.35
2022-09-23T21:41:34.068Z,14.10
2022-09-23T21:44:04.413Z,15.05
2022-09-23T21:46:33.799Z,15.75
2022-09-23T21:49:03.300Z,16.73
2022-09-23T21:51:41.120Z,16.45
2022-09-23T21:54:13.599Z,16.30
2022-09-23T21:56:40.416Z,16.08
2022-09-23T21:59:08.111Z,16.23
2022-09-23T22:01:38.048Z,17.20
2022-09-23T22:04:14.689Z,16.27
2022-09-23T22:06:41.743Z,16.85
2022-09-23T22:09:12.150Z,16.33
2022-09-23T22:11:58.365Z,16.77
2022-09-23T22:14:26.207Z,16.70
2022-09-23T22:16:57.878Z,16.65
2022-09-23T22:19:27.067Z,16.98
2022-09-23T22:21:55.956Z,18.45
2022-09-23T22:24:23.130Z,18.67
2022-09-23T22:26:49.894Z,18.48
2022-09-23T22:29:35.249Z,18.40
2022-09-23T22:32:22.698Z,19.23
2022-09-23T22:34:52.079Z,18.65
2022-09-23T22:37:25.480Z,20.42
2022-09-23T22:39:52.122Z,19.77
2022-09-23T22:42:21.464Z,19.30
2022-09-23T22:44:48.728Z,18.20
2022-09-23T22:47:20.527Z,19.60
2022-09-23T22:49:47.938Z,20.75
2022-09-23T22:52:16.170Z,20.73
2022-09-23T22:54:43.450Z,21.85
2022-09-23T22:57:10.318Z,21.42
2022-09-23T22:59:39.799Z,23.10
2022-09-23T23:02:08.194Z,23.50
2022-09-23T23:04:37.134Z,25.67
2022-09-23T23:07:06.021Z,25.88
2022-09-23T23:09:32.933Z,26.33
2022-09-23T23:12:00.065Z,23.50
2022-09-23T23:14:28.099Z,23.75
2022-09-23T23:16:55.182Z,23.33
2022-09-23T23:19:22.091Z,22.63
2022-09-23T23:21:50.477Z,22.83
2022-09-23T23:24:21.774Z,20.65
2022-09-23T23:26:49.560Z,21.85
2022-09-23T23:29:18.115Z,19.58
2022-09-23T23:31:45.545Z,19.25
2022-09-23T23:34:16.224Z,18.50
2022-09-23T23:36:43.752Z,17.75
2022-09-23T23:39:12.347Z,18.05
2022-09-23T23:41:42.508Z,16.38
2022-09-23T23:44:09.358Z,17.00
2022-09-23T23:46:37.424Z,15.88
2022-09-23T23:49:04.847Z,15.68
2022-09-23T23:51:32.171Z,15.30
2022-09-23T23:53:59.488Z,15.80
2022-09-23T23:56:27.583Z,15.75
2022-09-23T23:59:03.976Z,14.52
